Time;durP1;ratioP1;P1;durP2;ratioP2;P2;SDS_P1;SDS_P2;PMS_P1;PMS_P2;Temp;Humidity;BMP_temperature;BMP_pressure;BME280_temperature;BME280_humidity;BME280_pressure;Samples;Min_cycle;Max_cycle;Signal;HPM_P1;HPM_P2
2022/02/01 00:03:49;;;;;;;778.38;318.88;;;;;;;;;;4953641;28;20043;-77
2022/02/01 00:08:49;;;;;;;777.63;320.85;;;;;;;;;;4962744;28;20025;-78
2022/02/01 00:33:19;;;;;;;776.88;315.45;;;;;;;;;;4945482;29;20039;-77
2022/02/01 00:35:53;;;;;;;779.50;318.85;;;;;;;;;;4949941;28;20027;-78
2022/02/01 00:38:24;;;;;;;781.40;320.33;;;;;;;;;;4939726;29;20494;-77
2022/02/01 00:40:55;;;;;;;780.85;320.73;;;;;;;;;;4971585;28;20282;-77
2022/02/01 00:43:22;;;;;;;786.10;328.20;;;;;;;;;;4948262;28;20078;-77
2022/02/01 00:45:48;;;;;;;786.35;326.75;;;;;;;;;;4959700;28;20447;-78
2022/02/01 00:48:14;;;;;;;780.92;323.27;;;;;;;;;;4960482;28;20031;-77
2022/02/01 00:50:40;;;;;;;783.90;327.17;;;;;;;;;;4974330;28;20063;-77
2022/02/01 00:53:06;;;;;;;783.78;331.73;;;;;;;;;;4970303;28;20070;-77
2022/02/01 00:55:32;;;;;;;781.67;325.13;;;;;;;;;;4943028;28;20398;-77
2022/02/01 00:57:58;;;;;;;778.92;324.42;;;;;;;;;;4960021;28;20055;-77
2022/02/01 01:00:24;;;;;;;780.75;329.55;;;;;;;;;;4967486;28;20083;-77
2022/02/01 01:02:50;;;;;;;782.95;329.48;;;;;;;;;;4952076;28;20098;-78
2022/02/01 01:05:16;;;;;;;781.97;328.48;;;;;;;;;;4958234;28;20044;-77
2022/02/01 01:07:42;;;;;;;781.42;326.95;;;;;;;;;;4962413;28;20122;-77
2022/02/01 01:10:10;;;;;;;777.70;328.95;;;;;;;;;;4960669;28;20434;-77
2022/02/01 01:12:45;;;;;;;779.28;332.30;;;;;;;;;;4975317;28;20056;-77
2022/02/01 01:15:25;;;;;;;778.63;328.00;;;;;;;;;;4942502;28;20034;-77
2022/02/01 01:18:33;;;;;;;779.30;325.98;;;;;;;;;;4971125;28;20028;-77
2022/02/01 01:52:58;;;;;;;786.35;334.52;;;;;;;;;;4942495;29;20499;-77
2022/02/01 01:54:01;;;;;;;787.15;335.98;;;;;;;;;;4949294;28;20084;-77
2022/02/01 01:56:27;;;;;;;789.03;337.52;;;;;;;;;;4969554;28;20076;-77
2022/02/01 01:58:53;;;;;;;788.90;339.52;;;;;;;;;;4973815;28;20058;-77
2022/02/01 02:01:19;;;;;;;790.80;338.50;;;;;;;;;;4960163;28;20024;-77
2022/02/01 02:03:47;;;;;;;785.92;338.25;;;;;;;;;;4969656;28;20032;-77
2022/02/01 02:06:14;;;;;;;789.33;339.25;;;;;;;;;;4968615;28;20031;-77
2022/02/01 02:08:44;;;;;;;787.67;339.33;;;;;;;;;;4943488;29;20456;-77
2022/02/01 02:11:14;;;;;;;;;;;;;;;;;;4948570;28;20023;-78
2022/02/01 02:16:36;;;;;;;785.97;326.60;;;;;;;;;;4941143;28;20046;-77
2022/02/01 02:19:03;;;;;;;786.78;338.25;;;;;;;;;;4936227;28;20023;-77
2022/02/01 02:21:29;;;;;;;783.97;335.48;;;;;;;;;;4972295;28;20498;-78
2022/02/01 02:23:55;;;;;;;786.83;340.05;;;;;;;;;;4946334;29;20039;-77
2022/02/01 02:26:21;;;;;;;789.85;336.33;;;;;;;;;;4955920;28;20035;-77
2022/02/01 02:28:47;;;;;;;786.17;336.60;;;;;;;;;;4949126;29;20096;-77
2022/02/01 02:31:16;;;;;;;784.92;332.95;;;;;;;;;;4941221;28;20059;-77
2022/02/01 02:33:42;;;;;;;783.20;330.30;;;;;;;;;;4944177;29;20092;-77
2022/02/01 02:36:16;;;;;;;784.38;335.73;;;;;;;;;;4948755;28;20035;-77
2022/02/01 02:41:30;;;;;;;787.25;337.88;;;;;;;;;;4944780;29;20023;-76
2022/02/01 02:46:44;;;;;;;785.85;333.55;;;;;;;;;;4946793;29;20106;-77
2022/02/01 02:49:12;;;;;;;786.47;334.38;;;;;;;;;;4945267;28;20126;-77
2022/02/01 02:51:38;;;;;;;784.15;328.70;;;;;;;;;;4970587;28;20028;-77
2022/02/01 02:54:09;;;;;;;786.33;332.58;;;;;;;;;;4948750;29;20027;-76
2022/02/01 02:56:35;;;;;;;785.92;330.20;;;;;;;;;;4933952;28;20031;-77
2022/02/01 02:59:02;;;;;;;785.67;330.55;;;;;;;;;;4961328;28;20046;-77
2022/02/01 03:01:28;;;;;;;783.08;330.27;;;;;;;;;;4954118;28;20028;-77
2022/02/01 03:03:55;;;;;;;784.70;333.33;;;;;;;;;;4963131;28;20047;-77
2022/02/01 03:06:21;;;;;;;785.50;329.27;;;;;;;;;;4947103;28;20101;-77
2022/02/01 03:08:47;;;;;;;786.35;331.83;;;;;;;;;;4949478;28;20612;-77
2022/02/01 03:11:15;;;;;;;786.80;330.88;;;;;;;;;;4940606;28;20407;-77
2022/02/01 03:13:46;;;;;;;788.25;332.13;;;;;;;;;;4946506;28;20046;-77
2022/02/01 03:21:35;;;;;;;780.80;332.08;;;;;;;;;;4943908;29;20514;-77
2022/02/01 03:24:01;;;;;;;781.35;327.25;;;;;;;;;;4959958;28;20390;-77
2022/02/01 03:26:27;;;;;;;781.58;329.48;;;;;;;;;;4952073;28;20031;-77
2022/02/01 03:28:54;;;;;;;785.95;337.35;;;;;;;;;;4957868;28;20475;-77
2022/02/01 03:31:20;;;;;;;783.58;330.85;;;;;;;;;;4948121;28;20498;-77
2022/02/01 03:33:47;;;;;;;788.03;337.05;;;;;;;;;;4954813;28;20036;-77
2022/02/01 03:36:13;;;;;;;785.65;340.88;;;;;;;;;;4980254;28;20101;-77
2022/02/01 03:38:39;;;;;;;785.90;341.52;;;;;;;;;;4951119;28;20040;-77
2022/02/01 03:41:05;;;;;;;785.78;334.10;;;;;;;;;;4959067;28;20032;-77
2022/02/01 03:43:31;;;;;;;789.67;339.30;;;;;;;;;;4967343;28;20113;-77
2022/02/01 03:45:57;;;;;;;788.53;340.08;;;;;;;;;;4947098;28;20035;-78
2022/02/01 03:48:23;;;;;;;790.00;340.15;;;;;;;;;;4944924;28;20315;-77
2022/02/01 03:50:49;;;;;;;790.67;342.30;;;;;;;;;;4946278;29;20093;-77
2022/02/01 03:53:17;;;;;;;788.65;340.80;;;;;;;;;;4956377;28;20038;-77
2022/02/01 03:55:43;;;;;;;788.35;339.05;;;;;;;;;;4949219;29;20035;-76
2022/02/01 03:58:09;;;;;;;785.22;329.20;;;;;;;;;;4944082;28;20538;-77
2022/02/01 04:00:36;;;;;;;785.15;340.27;;;;;;;;;;4959399;28;20106;-77
2022/02/01 04:03:04;;;;;;;793.33;329.85;;;;;;;;;;4953419;28;20031;-77
2022/02/01 04:05:33;;;;;;;786.50;335.63;;;;;;;;;;4959787;28;20054;-77
2022/02/01 04:08:00;;;;;;;784.43;334.70;;;;;;;;;;4946620;28;20031;-77
2022/02/01 04:10:26;;;;;;;787.85;333.35;;;;;;;;;;4950716;28;20423;-77
2022/02/01 04:12:53;;;;;;;785.55;332.23;;;;;;;;;;4954982;28;20043;-77
2022/02/01 04:15:21;;;;;;;784.63;333.80;;;;;;;;;;4940132;29;20039;-77
2022/02/01 04:17:48;;;;;;;785.33;331.70;;;;;;;;;;4962261;28;20029;-77
2022/02/01 04:20:14;;;;;;;784.25;329.77;;;;;;;;;;4954702;28;20032;-77
2022/02/01 04:22:40;;;;;;;787.97;335.90;;;;;;;;;;4940685;28;20548;-77
2022/02/01 04:25:06;;;;;;;785.50;336.65;;;;;;;;;;4964527;28;20118;-77
2022/02/01 04:27:32;;;;;;;783.95;329.35;;;;;;;;;;4960029;28;20391;-77
2022/02/01 04:30:09;;;;;;;784.92;330.15;;;;;;;;;;4950876;28;20027;-77
2022/02/01 04:32:39;;;;;;;787.80;332.88;;;;;;;;;;4957340;28;20056;-77
2022/02/01 04:35:06;;;;;;;784.70;328.55;;;;;;;;;;4958977;28;20027;-77
2022/02/01 04:37:32;;;;;;;784.63;333.55;;;;;;;;;;4938114;29;20043;-77
2022/02/01 04:39:59;;;;;;;781.33;332.90;;;;;;;;;;4958861;28;20025;-77
2022/02/01 04:42:27;;;;;;;786.47;340.73;;;;;;;;;;4989143;28;20029;-77
2022/02/01 04:44:53;;;;;;;782.38;329.25;;;;;;;;;;4940338;28;20491;-78
2022/02/01 04:47:19;;;;;;;785.22;335.70;;;;;;;;;;4965736;28;20046;-77
2022/02/01 04:49:46;;;;;;;781.13;333.30;;;;;;;;;;4942960;28;20046;-78
2022/02/01 04:52:12;;;;;;;785.38;337.67;;;;;;;;;;4954882;28;20024;-77
2022/02/01 04:54:38;;;;;;;783.22;335.80;;;;;;;;;;4966196;28;20032;-78
2022/02/01 04:57:04;;;;;;;783.88;333.52;;;;;;;;;;4930428;29;20028;-78
2022/02/01 04:59:30;;;;;;;783.10;327.23;;;;;;;;;;4946826;28;20102;-77
2022/02/01 05:01:57;;;;;;;784.20;334.95;;;;;;;;;;4944250;28;20027;-77
2022/02/01 05:04:23;;;;;;;781.40;331.10;;;;;;;;;;4976756;28;20054;-76
2022/02/01 05:06:54;;;;;;;781.55;329.73;;;;;;;;;;4989760;28;20659;-77
2022/02/01 05:09:20;;;;;;;780.00;324.52;;;;;;;;;;4962811;28;20491;-77
2022/02/01 05:11:48;;;;;;;779.15;321.25;;;;;;;;;;4937087;28;20047;-77
2022/02/01 05:14:20;;;;;;;777.08;321.50;;;;;;;;;;4951078;28;20342;-78
2022/02/01 05:16:57;;;;;;;781.83;324.30;;;;;;;;;;4939870;29;20047;-78
2022/02/01 05:21:54;;;;;;;778.10;321.38;;;;;;;;;;4947036;28;20126;-77
2022/02/01 05:24:21;;;;;;;777.42;317.05;;;;;;;;;;4959227;28;20040;-77
2022/02/01 05:26:47;;;;;;;777.00;318.88;;;;;;;;;;4959553;28;20475;-77
2022/02/01 05:29:13;;;;;;;775.80;319.20;;;;;;;;;;4947769;28;20114;-77
2022/02/01 05:31:39;;;;;;;781.25;317.83;;;;;;;;;;4939614;28;20127;-76
2022/02/01 05:34:05;;;;;;;780.15;321.42;;;;;;;;;;4939905;28;20090;-78
2022/02/01 05:36:31;;;;;;;779.92;325.05;;;;;;;;;;4951466;28;20102;-77
2022/02/01 05:38:57;;;;;;;780.42;321.33;;;;;;;;;;4950150;28;20416;-77
2022/02/01 05:41:25;;;;;;;779.47;320.42;;;;;;;;;;4957598;28;20032;-76
2022/02/01 05:43:52;;;;;;;780.42;320.05;;;;;;;;;;4955584;28;20032;-77
2022/02/01 05:46:18;;;;;;;777.42;318.88;;;;;;;;;;4946390;28;20059;-76
2022/02/01 05:48:44;;;;;;;778.42;324.58;;;;;;;;;;4947919;28;20061;-76
2022/02/01 05:51:10;;;;;;;778.80;323.73;;;;;;;;;;4953500;28;20050;-76
2022/02/01 05:53:36;;;;;;;780.92;324.55;;;;;;;;;;4948693;28;20101;-77
2022/02/01 05:56:02;;;;;;;796.00;324.27;;;;;;;;;;4967347;28;20035;-77
2022/02/01 05:58:28;;;;;;;782.13;323.83;;;;;;;;;;4991351;28;20027;-76
2022/02/01 06:00:54;;;;;;;780.78;324.90;;;;;;;;;;4992384;28;20038;-76
2022/02/01 06:03:20;;;;;;;779.05;321.13;;;;;;;;;;4943259;28;21452;-77
2022/02/01 06:05:46;;;;;;;782.72;329.05;;;;;;;;;;4943890;28;20446;-77
2022/02/01 06:08:12;;;;;;;782.75;327.42;;;;;;;;;;4945412;28;20040;-77
2022/02/01 06:10:39;;;;;;;778.50;323.80;;;;;;;;;;4974386;28;20158;-77
2022/02/01 06:13:05;;;;;;;780.35;329.88;;;;;;;;;;4972275;28;20114;-77
2022/02/01 06:15:31;;;;;;;783.03;330.48;;;;;;;;;;4943805;28;20041;-77
2022/02/01 06:17:57;;;;;;;781.40;328.17;;;;;;;;;;4974842;28;20038;-77
2022/02/01 06:20:23;;;;;;;779.03;326.92;;;;;;;;;;4943724;28;20466;-77
2022/02/01 06:22:49;;;;;;;779.95;326.45;;;;;;;;;;4963408;28;20481;-76
2022/02/01 06:25:21;;;;;;;778.42;323.25;;;;;;;;;;4959308;28;20038;-77
2022/02/01 06:27:47;;;;;;;778.20;321.95;;;;;;;;;;4943701;29;20058;-77
2022/02/01 06:30:13;;;;;;;782.47;324.83;;;;;;;;;;4996843;28;20056;-77
2022/02/01 06:32:40;;;;;;;780.95;325.85;;;;;;;;;;4955002;28;20050;-77
2022/02/01 06:35:07;;;;;;;780.70;325.67;;;;;;;;;;4960383;28;20025;-76
2022/02/01 06:37:33;;;;;;;779.65;328.38;;;;;;;;;;4959955;28;20028;-76
2022/02/01 06:39:59;;;;;;;783.15;328.17;;;;;;;;;;4990788;28;20075;-76
2022/02/01 06:42:25;;;;;;;782.45;330.17;;;;;;;;;;4952445;28;20031;-77
2022/02/01 06:44:51;;;;;;;779.97;331.40;;;;;;;;;;4953849;28;20031;-77
2022/02/01 06:47:17;;;;;;;776.00;322.73;;;;;;;;;;4940304;28;20041;-77
2022/02/01 06:49:44;;;;;;;779.20;322.73;;;;;;;;;;4972906;28;20178;-77
2022/02/01 06:52:10;;;;;;;779.92;330.58;;;;;;;;;;4941448;28;20224;-77
2022/02/01 06:54:36;;;;;;;779.72;330.00;;;;;;;;;;4969026;28;20058;-77
2022/02/01 06:57:05;;;;;;;780.15;329.25;;;;;;;;;;4953130;28;20605;-77
2022/02/01 06:59:31;;;;;;;776.70;323.27;;;;;;;;;;4941757;28;20062;-77
2022/02/01 07:01:57;;;;;;;776.95;323.83;;;;;;;;;;4984539;28;20076;-77
2022/02/01 07:04:23;;;;;;;771.33;320.23;;;;;;;;;;4970852;28;20574;-78
2022/02/01 07:06:50;;;;;;;777.53;318.58;;;;;;;;;;4957324;28;20043;-77
2022/02/01 07:09:16;;;;;;;777.67;320.42;;;;;;;;;;4970434;28;20028;-77
2022/02/01 07:11:42;;;;;;;777.35;315.80;;;;;;;;;;4959751;28;20028;-78
2022/02/01 07:14:08;;;;;;;772.08;313.20;;;;;;;;;;4949914;28;20492;-76
2022/02/01 07:16:35;;;;;;;771.78;310.27;;;;;;;;;;4986951;28;20119;-77
2022/02/01 07:19:01;;;;;;;766.13;304.02;;;;;;;;;;4979079;28;20031;-77
2022/02/01 07:21:28;;;;;;;762.05;294.08;;;;;;;;;;5011648;28;20035;-77
2022/02/01 07:23:55;;;;;;;766.60;299.42;;;;;;;;;;4956833;28;20053;-77
2022/02/01 07:26:21;;;;;;;765.10;296.65;;;;;;;;;;4956499;28;20035;-78
2022/02/01 07:28:47;;;;;;;765.45;294.83;;;;;;;;;;4963789;28;20484;-77
2022/02/01 07:31:14;;;;;;;764.30;293.48;;;;;;;;;;4967348;28;20073;-78
2022/02/01 07:33:40;;;;;;;763.22;292.15;;;;;;;;;;4946732;28;20058;-77
2022/02/01 07:36:06;;;;;;;760.20;292.92;;;;;;;;;;4980963;28;20027;-78
2022/02/01 07:38:33;;;;;;;761.92;286.75;;;;;;;;;;4974021;28;20165;-78
2022/02/01 07:40:59;;;;;;;764.22;292.80;;;;;;;;;;4986350;28;20045;-77
2022/02/01 07:43:33;;;;;;;760.58;292.52;;;;;;;;;;4952978;28;20080;-77
2022/02/01 07:46:02;;;;;;;761.60;291.25;;;;;;;;;;4959748;28;20039;-76
2022/02/01 07:48:29;;;;;;;761.88;290.27;;;;;;;;;;4944455;28;20051;-77
2022/02/01 07:50:55;;;;;;;764.67;293.80;;;;;;;;;;4955651;28;20027;-76
2022/02/01 07:53:21;;;;;;;761.85;292.98;;;;;;;;;;4952911;28;20062;-77
2022/02/01 07:55:47;;;;;;;764.00;298.45;;;;;;;;;;4945912;28;20070;-77
2022/02/01 07:58:13;;;;;;;763.25;297.80;;;;;;;;;;4952968;28;20029;-76
2022/02/01 08:00:39;;;;;;;766.55;298.85;;;;;;;;;;4970591;28;20033;-77
2022/02/01 08:03:06;;;;;;;766.25;300.30;;;;;;;;;;4963339;28;20399;-76
2022/02/01 08:05:33;;;;;;;759.60;291.67;;;;;;;;;;4963582;28;20036;-78
2022/02/01 08:08:00;;;;;;;766.60;301.30;;;;;;;;;;4981965;28;20190;-77
2022/02/01 08:10:32;;;;;;;765.78;301.33;;;;;;;;;;4973245;28;20054;-77
2022/02/01 08:13:47;;;;;;;764.22;303.90;;;;;;;;;;4969872;28;20670;-78
2022/02/01 08:21:01;;;;;;;767.35;309.75;;;;;;;;;;4950871;28;20085;-77
2022/02/01 08:23:27;;;;;;;764.10;307.33;;;;;;;;;;4956085;28;20576;-77
2022/02/01 08:25:53;;;;;;;765.72;312.52;;;;;;;;;;4966530;28;20039;-77
2022/02/01 08:28:21;;;;;;;768.72;313.95;;;;;;;;;;4950810;28;20538;-78
2022/02/01 08:30:50;;;;;;;765.47;308.90;;;;;;;;;;4963744;28;20036;-79
2022/02/01 08:33:16;;;;;;;769.10;315.33;;;;;;;;;;4975570;28;20048;-77
2022/02/01 08:35:42;;;;;;;769.50;317.98;;;;;;;;;;4969841;28;20065;-78
2022/02/01 08:38:08;;;;;;;769.58;320.52;;;;;;;;;;4954178;28;20035;-79
2022/02/01 08:40:34;;;;;;;770.63;316.17;;;;;;;;;;4963232;28;20028;-78
2022/02/01 08:43:00;;;;;;;769.10;316.50;;;;;;;;;;4960983;28;20069;-78
2022/02/01 08:45:26;;;;;;;772.38;320.08;;;;;;;;;;4943819;28;20031;-78
2022/02/01 08:47:54;;;;;;;767.33;319.50;;;;;;;;;;4973290;28;20085;-76
2022/02/01 08:50:24;;;;;;;770.92;325.55;;;;;;;;;;4942279;28;20031;-78
2022/02/01 08:52:51;;;;;;;768.55;318.70;;;;;;;;;;4969639;28;20027;-79
2022/02/01 08:55:33;;;;;;;769.85;324.00;;;;;;;;;;4970061;28;20034;-77
2022/02/01 08:58:00;;;;;;;767.17;325.25;;;;;;;;;;4962836;28;20065;-78
2022/02/01 09:00:26;;;;;;;770.30;322.20;;;;;;;;;;4980443;28;20033;-79
2022/02/01 09:02:52;;;;;;;772.42;327.75;;;;;;;;;;4945753;28;20080;-78
2022/02/01 09:05:18;;;;;;;772.50;337.08;;;;;;;;;;4946948;28;20048;-77
2022/02/01 09:07:44;;;;;;;774.00;335.25;;;;;;;;;;4967226;28;20051;-79
2022/02/01 09:10:11;;;;;;;774.70;336.60;;;;;;;;;;4976740;28;20493;-78
2022/02/01 09:12:36;;;;;;;773.22;333.13;;;;;;;;;;4957560;28;20062;-78
2022/02/01 09:15:03;;;;;;;776.92;339.58;;;;;;;;;;4944471;28;20040;-78
2022/02/01 09:17:29;;;;;;;775.42;334.52;;;;;;;;;;4965876;28;20078;-78
2022/02/01 09:19:56;;;;;;;778.47;342.83;;;;;;;;;;4950488;28;20030;-78
2022/02/01 09:22:22;;;;;;;778.78;343.27;;;;;;;;;;4957245;28;20027;-78
2022/02/01 09:24:48;;;;;;;775.53;338.55;;;;;;;;;;4957142;28;20058;-77
2022/02/01 09:27:14;;;;;;;776.60;350.05;;;;;;;;;;4953505;28;20173;-77
2022/02/01 09:29:40;;;;;;;779.22;352.73;;;;;;;;;;4983611;28;20036;-77
2022/02/01 09:32:07;;;;;;;775.30;348.90;;;;;;;;;;4942329;28;20382;-78
2022/02/01 09:34:33;;;;;;;780.10;351.20;;;;;;;;;;4961336;28;20044;-78
2022/02/01 09:37:00;;;;;;;781.13;356.80;;;;;;;;;;4990452;28;20046;-77
2022/02/01 09:39:26;;;;;;;782.88;359.58;;;;;;;;;;4972242;28;20534;-77
2022/02/01 09:41:53;;;;;;;782.10;356.20;;;;;;;;;;4962479;28;20041;-77
2022/02/01 09:44:20;;;;;;;782.17;357.50;;;;;;;;;;4964168;28;20521;-76
2022/02/01 09:46:47;;;;;;;782.33;357.38;;;;;;;;;;4983950;28;20043;-78
2022/02/01 09:49:17;;;;;;;787.10;371.38;;;;;;;;;;4972452;28;20031;-77
2022/02/01 09:51:48;;;;;;;785.53;360.95;;;;;;;;;;4975115;28;20053;-76
2022/02/01 09:54:14;;;;;;;782.33;360.48;;;;;;;;;;4960480;28;20029;-77
2022/02/01 09:56:40;;;;;;;786.28;373.50;;;;;;;;;;4948969;28;20507;-77
2022/02/01 09:59:19;;;;;;;787.22;377.63;;;;;;;;;;4957555;28;20398;-77
2022/02/01 10:01:47;;;;;;;786.45;375.25;;;;;;;;;;4964977;28;20038;-78
2022/02/01 10:04:13;;;;;;;786.28;378.00;;;;;;;;;;4971714;28;20032;-77
2022/02/01 10:06:40;;;;;;;786.17;377.70;;;;;;;;;;4964801;28;20150;-76
2022/02/01 10:09:14;;;;;;;784.42;380.63;;;;;;;;;;4973172;28;20526;-77
2022/02/01 10:11:41;;;;;;;782.00;370.02;;;;;;;;;;4967183;28;20032;-77
2022/02/01 10:14:10;;;;;;;789.63;380.98;;;;;;;;;;4969097;28;20054;-77
2022/02/01 10:16:46;;;;;;;790.38;385.48;;;;;;;;;;4981184;28;20055;-77
2022/02/01 10:19:24;;;;;;;785.25;378.17;;;;;;;;;;4987642;28;20499;-78
2022/02/01 10:21:54;;;;;;;789.80;387.63;;;;;;;;;;4966849;28;20551;-77
2022/02/01 10:24:31;;;;;;;791.67;393.27;;;;;;;;;;4968858;28;20402;-77
2022/02/01 10:27:14;;;;;;;791.40;395.83;;;;;;;;;;4968239;28;20038;-77
2022/02/01 10:30:14;;;;;;;792.85;394.10;;;;;;;;;;4942225;28;20048;-78
2022/02/01 10:38:04;;;;;;;793.90;393.02;;;;;;;;;;4952147;28;20082;-78
2022/02/01 10:40:37;;;;;;;792.50;393.73;;;;;;;;;;4955311;28;20029;-78
2022/02/01 10:43:04;;;;;;;792.75;395.15;;;;;;;;;;4968811;28;20661;-79
2022/02/01 10:45:41;;;;;;;792.38;398.75;;;;;;;;;;4955236;28;20027;-77
2022/02/01 10:48:12;;;;;;;793.50;397.42;;;;;;;;;;4956377;28;20487;-79
2022/02/01 10:51:02;;;;;;;796.55;401.80;;;;;;;;;;4959385;28;20480;-78
2022/02/01 10:53:30;;;;;;;795.25;403.33;;;;;;;;;;4972893;28;20032;-78
2022/02/01 10:55:58;;;;;;;793.83;403.52;;;;;;;;;;4949138;28;20054;-78
2022/02/01 10:58:24;;;;;;;794.83;406.25;;;;;;;;;;4968833;28;20023;-78
2022/02/01 11:00:51;;;;;;;799.67;410.92;;;;;;;;;;4983472;28;20097;-78
2022/02/01 11:03:18;;;;;;;793.90;397.80;;;;;;;;;;4975481;28;20369;-78
2022/02/01 11:05:48;;;;;;;800.38;415.23;;;;;;;;;;4970976;28;20244;-78
2022/02/01 11:08:14;;;;;;;;;;;;;;;;;;4947903;28;20419;-79
2022/02/01 11:10:48;;;;;;;794.53;393.67;;;;;;;;;;4973799;28;19911;-78
2022/02/01 11:13:14;;;;;;;796.13;406.55;;;;;;;;;;4959118;28;20524;-79
2022/02/01 11:15:55;;;;;;;799.33;414.90;;;;;;;;;;4951895;28;20418;-77
2022/02/01 11:18:26;;;;;;;797.13;410.77;;;;;;;;;;4971928;28;20035;-78
2022/02/01 11:21:14;;;;;;;798.97;412.23;;;;;;;;;;4990946;28;20346;-79
2022/02/01 11:23:51;;;;;;;796.50;411.10;;;;;;;;;;4938251;28;20159;-79
2022/02/01 11:26:35;;;;;;;800.78;421.58;;;;;;;;;;4961367;28;20110;-78
2022/02/01 11:31:42;;;;;;;799.03;429.02;;;;;;;;;;4960689;28;20039;-79
2022/02/01 11:34:14;;;;;;;799.97;422.52;;;;;;;;;;4956768;28;20028;-79
2022/02/01 11:36:41;;;;;;;800.88;428.67;;;;;;;;;;4972902;28;20791;-77
2022/02/01 11:39:12;;;;;;;804.03;441.95;;;;;;;;;;4965156;28;20069;-81
2022/02/01 11:41:41;;;;;;;804.00;442.08;;;;;;;;;;4989292;28;20107;-78
2022/02/01 11:44:08;;;;;;;802.92;441.92;;;;;;;;;;4964028;28;20062;-79
2022/02/01 11:46:34;;;;;;;801.58;439.17;;;;;;;;;;4978027;28;20431;-78
2022/02/01 11:49:07;;;;;;;807.20;443.40;;;;;;;;;;4979191;28;20502;-80
2022/02/01 11:51:33;;;;;;;805.28;436.10;;;;;;;;;;4967247;28;20030;-78
2022/02/01 11:54:00;;;;;;;802.25;429.00;;;;;;;;;;4976813;28;20027;-79
2022/02/01 11:56:33;;;;;;;806.15;450.73;;;;;;;;;;4989295;28;20420;-77
2022/02/01 11:59:03;;;;;;;811.20;445.00;;;;;;;;;;4954649;28;20030;-78
2022/02/01 12:01:31;;;;;;;808.13;448.42;;;;;;;;;;5007052;28;20031;-79
2022/02/01 12:04:12;;;;;;;805.55;444.48;;;;;;;;;;4953667;28;20027;-78
2022/02/01 12:06:45;;;;;;;802.55;431.15;;;;;;;;;;4959387;28;20045;-78
2022/02/01 12:09:19;;;;;;;804.78;440.52;;;;;;;;;;4986397;28;20039;-79
2022/02/01 12:11:45;;;;;;;802.78;432.45;;;;;;;;;;4986115;28;20435;-79
2022/02/01 12:14:17;;;;;;;807.80;447.50;;;;;;;;;;4994278;28;20276;-80
2022/02/01 12:16:47;;;;;;;803.00;436.35;;;;;;;;;;4986091;28;20039;-79
2022/02/01 12:19:16;;;;;;;808.63;450.40;;;;;;;;;;4960629;28;20025;-77
2022/02/01 12:21:45;;;;;;;806.00;440.08;;;;;;;;;;4947094;28;20027;-79
2022/02/01 12:27:21;;;;;;;803.75;432.17;;;;;;;;;;4950720;29;20096;-79
2022/02/01 12:29:47;;;;;;;805.25;441.00;;;;;;;;;;4981241;28;20024;-77
2022/02/01 12:32:13;;;;;;;807.00;443.13;;;;;;;;;;4995643;28;20027;-77
2022/02/01 12:34:39;;;;;;;807.83;444.73;;;;;;;;;;4958986;28;20470;-77
2022/02/01 12:37:05;;;;;;;806.58;444.33;;;;;;;;;;4966254;28;20027;-77
2022/02/01 12:39:33;;;;;;;808.58;446.58;;;;;;;;;;4945124;28;20081;-78
2022/02/01 12:42:16;;;;;;;810.22;456.35;;;;;;;;;;4965500;28;21119;-77
2022/02/01 12:47:16;;;;;;;805.72;447.25;;;;;;;;;;4973198;28;20434;-79
2022/02/01 12:49:44;;;;;;;812.63;456.38;;;;;;;;;;4950497;28;20036;-77
2022/02/01 12:52:19;;;;;;;810.72;452.50;;;;;;;;;;5000481;28;20944;-79
2022/02/01 12:54:45;;;;;;;809.30;453.67;;;;;;;;;;4950453;28;20234;-77
2022/02/01 12:57:18;;;;;;;811.88;451.75;;;;;;;;;;4974004;28;20365;-79
2022/02/01 12:59:48;;;;;;;811.88;460.05;;;;;;;;;;4968551;28;20462;-77
2022/02/01 13:02:14;;;;;;;;;;;;;;;;;;4967446;28;20027;-77
2022/02/01 13:04:40;;;;;;;809.45;439.23;;;;;;;;;;4989730;28;19917;-78
2022/02/01 13:07:28;;;;;;;819.22;457.38;;;;;;;;;;4960915;28;20459;-77
2022/02/01 13:12:58;;;;;;;810.08;456.27;;;;;;;;;;4940225;29;20046;-77
2022/02/01 13:15:31;;;;;;;812.30;461.73;;;;;;;;;;4966482;28;20036;-78
2022/02/01 13:20:04;;;;;;;810.33;457.02;;;;;;;;;;4974957;28;20655;-78
2022/02/01 13:21:23;;;;;;;806.67;443.73;;;;;;;;;;4947192;28;20062;-79
2022/02/01 13:23:59;;;;;;;816.25;459.55;;;;;;;;;;4961514;28;20035;-78
2022/02/01 13:26:26;;;;;;;811.88;454.80;;;;;;;;;;4957918;28;20023;-78
2022/02/01 13:29:06;;;;;;;812.22;458.85;;;;;;;;;;4957938;28;20406;-78
2022/02/01 13:31:33;;;;;;;817.85;466.40;;;;;;;;;;4956801;28;20359;-78
2022/02/01 13:34:04;;;;;;;815.95;469.55;;;;;;;;;;4984107;28;20043;-77
2022/02/01 13:36:53;;;;;;;816.75;480.65;;;;;;;;;;4983257;28;20059;-78
2022/02/01 13:39:30;;;;;;;820.53;471.50;;;;;;;;;;4968270;28;20114;-78
2022/02/01 13:41:58;;;;;;;819.03;478.20;;;;;;;;;;4956121;28;20107;-78
2022/02/01 13:44:24;;;;;;;819.08;480.20;;;;;;;;;;4960388;28;20048;-79
2022/02/01 13:47:11;;;;;;;815.25;467.45;;;;;;;;;;4961015;28;20037;-78
2022/02/01 13:49:39;;;;;;;813.20;464.40;;;;;;;;;;4969564;28;20120;-78
2022/02/01 13:52:07;;;;;;;812.85;464.25;;;;;;;;;;4945916;28;20031;-78
2022/02/01 13:54:40;;;;;;;815.05;464.42;;;;;;;;;;5037438;28;20127;-78
2022/02/01 13:57:16;;;;;;;818.45;470.55;;;;;;;;;;5050047;28;20029;-78
2022/02/01 13:59:43;;;;;;;812.97;461.52;;;;;;;;;;5033445;28;20120;-79
2022/02/01 14:02:15;;;;;;;816.00;477.45;;;;;;;;;;5029780;28;20033;-80
2022/02/01 14:05:01;;;;;;;814.47;467.95;;;;;;;;;;5025642;28;20442;-78
2022/02/01 14:07:37;;;;;;;816.03;461.13;;;;;;;;;;5030580;28;20045;-77
2022/02/01 14:10:16;;;;;;;816.28;467.55;;;;;;;;;;5029670;28;20035;-79
2022/02/01 14:28:58;;;;;;;813.78;474.67;;;;;;;;;;4986002;28;20050;-80
2022/02/01 14:34:14;;;;;;;817.63;481.75;;;;;;;;;;4950325;28;20067;-78
2022/02/01 14:36:42;;;;;;;819.13;478.83;;;;;;;;;;4945596;28;20121;-79
2022/02/01 14:44:42;;;;;;;815.28;467.58;;;;;;;;;;4959238;28;20085;-80
2022/02/01 14:47:09;;;;;;;819.60;479.25;;;;;;;;;;4937264;29;20194;-79
2022/02/01 14:49:35;;;;;;;820.58;484.63;;;;;;;;;;4966804;28;20027;-79
2022/02/01 14:52:04;;;;;;;821.42;487.63;;;;;;;;;;4938587;28;20040;-79
2022/02/01 14:54:34;;;;;;;823.60;489.13;;;;;;;;;;4967388;28;20105;-80
2022/02/01 15:03:44;;;;;;;820.55;483.92;;;;;;;;;;4979416;28;20035;-79
2022/02/01 15:13:17;;;;;;;814.53;469.92;;;;;;;;;;4963359;28;20087;-80
2022/02/01 15:15:43;;;;;;;814.33;463.27;;;;;;;;;;4952330;28;20020;-80
2022/02/01 15:18:09;;;;;;;831.97;474.35;;;;;;;;;;4980024;28;20031;-79
2022/02/01 15:20:35;;;;;;;815.25;469.55;;;;;;;;;;4944632;28;20034;-80
2022/02/01 15:23:01;;;;;;;826.90;469.15;;;;;;;;;;4953829;28;20070;-80
2022/02/01 15:25:28;;;;;;;813.90;458.75;;;;;;;;;;4950343;28;20069;-80
2022/02/01 15:27:54;;;;;;;813.95;466.88;;;;;;;;;;4984331;28;20044;-78
2022/02/01 15:30:20;;;;;;;812.22;463.17;;;;;;;;;;4987822;28;20031;-80
2022/02/01 15:32:48;;;;;;;811.97;460.88;;;;;;;;;;4944334;29;20042;-79
2022/02/01 15:35:15;;;;;;;812.33;468.45;;;;;;;;;;4989476;28;20053;-80
2022/02/01 15:37:44;;;;;;;811.95;456.10;;;;;;;;;;4951354;29;20111;-79
2022/02/01 15:59:22;;;;;;;807.47;452.75;;;;;;;;;;4951320;28;20128;-78
2022/02/01 16:01:57;;;;;;;811.15;462.52;;;;;;;;;;4963912;28;20381;-79
2022/02/01 16:04:24;;;;;;;813.80;469.45;;;;;;;;;;4942165;28;20487;-79
2022/02/01 16:06:58;;;;;;;817.78;477.52;;;;;;;;;;4944802;28;20387;-79
2022/02/01 16:09:43;;;;;;;811.72;466.02;;;;;;;;;;4962866;28;20031;-79
2022/02/01 16:12:19;;;;;;;819.63;468.95;;;;;;;;;;4963340;28;20419;-79
2022/02/01 16:14:46;;;;;;;813.78;465.48;;;;;;;;;;4988188;28;20039;-78
2022/02/01 16:17:17;;;;;;;825.08;465.77;;;;;;;;;;4984174;28;20113;-78
2022/02/01 16:19:43;;;;;;;812.42;468.27;;;;;;;;;;4957774;28;20030;-79
2022/02/01 16:22:11;;;;;;;818.15;476.10;;;;;;;;;;4963677;28;20084;-79
2022/02/01 16:24:37;;;;;;;818.65;474.00;;;;;;;;;;4961430;28;20020;-78
2022/02/01 16:27:04;;;;;;;812.17;472.42;;;;;;;;;;4961588;28;20158;-80
2022/02/01 16:29:30;;;;;;;816.38;475.10;;;;;;;;;;4976395;28;20036;-79
2022/02/01 16:31:56;;;;;;;815.50;473.23;;;;;;;;;;4993704;28;20072;-78
2022/02/01 16:34:25;;;;;;;815.75;474.27;;;;;;;;;;4979861;28;20028;-79
2022/02/01 16:36:52;;;;;;;813.88;475.42;;;;;;;;;;4989878;28;20565;-79